sensor_id;sensor_type;location;lat;lon;timestamp;P1;durP1;ratioP1;P2;durP2;ratioP2
17927;SDS011;9089;58.396;15.544;2022-10-19T00:00:46;1.05;;;0.60;;
17927;SDS011;9089;58.396;15.544;2022-10-19T00:03:11;0.68;;;0.65;;
17927;SDS011;9089;58.396;15.544;2022-10-19T00:05:37;0.65;;;0.63;;
17927;SDS011;9089;58.396;15.544;2022-10-19T00:08:02;0.60;;;0.55;;
17927;SDS011;9089;58.396;15.544;2022-10-19T00:10:28;1.40;;;0.60;;
17927;SDS011;9089;58.396;15.544;2022-10-19T00:12:53;0.40;;;0.40;;
17927;SDS011;9089;58.396;15.544;2022-10-19T00:15:19;2.97;;;0.85;;
17927;SDS011;9089;58.396;15.544;2022-10-19T00:17:45;0.50;;;0.50;;
17927;SDS011;9089;58.396;15.544;2022-10-19T00:20:11;0.65;;;0.65;;
17927;SDS011;9089;58.396;15.544;2022-10-19T00:22:36;1.95;;;0.60;;
17927;SDS011;9089;58.396;15.544;2022-10-19T00:25:02;0.70;;;0.60;;
17927;SDS011;9089;58.396;15.544;2022-10-19T00:27:28;1.30;;;0.50;;
17927;SDS011;9089;58.396;15.544;2022-10-19T00:29:53;0.80;;;0.70;;
17927;SDS011;9089;58.396;15.544;2022-10-19T00:32:18;0.70;;;0.50;;
17927;SDS011;9089;58.396;15.544;2022-10-19T00:34:45;1.95;;;0.60;;
17927;SDS011;9089;58.396;15.544;2022-10-19T00:37:11;1.50;;;0.70;;
17927;SDS011;9089;58.396;15.544;2022-10-19T00:39:36;0.98;;;0.60;;
17927;SDS011;9089;58.396;15.544;2022-10-19T00:42:02;0.52;;;0.52;;
17927;SDS011;9089;58.396;15.544;2022-10-19T00:47:12;0.77;;;0.52;;
17927;SDS011;9089;58.396;15.544;2022-10-19T00:49:38;1.38;;;0.60;;
17927;SDS011;9089;58.396;15.544;2022-10-19T00:52:07;0.32;;;0.32;;
17927;SDS011;9089;58.396;15.544;2022-10-19T00:54:35;0.47;;;0.40;;
17927;SDS011;9089;58.396;15.544;2022-10-19T00:57:02;1.23;;;0.60;;
17927;SDS011;9089;58.396;15.544;2022-10-19T00:59:27;0.70;;;0.70;;
17927;SDS011;9089;58.396;15.544;2022-10-19T01:01:56;1.27;;;0.77;;
17927;SDS011;9089;58.396;15.544;2022-10-19T01:04:22;2.40;;;0.60;;
17927;SDS011;9089;58.396;15.544;2022-10-19T01:06:48;0.60;;;0.60;;
17927;SDS011;9089;58.396;15.544;2022-10-19T01:09:15;2.22;;;0.70;;
17927;SDS011;9089;58.396;15.544;2022-10-19T01:11:42;0.82;;;0.80;;
17927;SDS011;9089;58.396;15.544;2022-10-19T01:14:18;0.60;;;0.57;;
17927;SDS011;9089;58.396;15.544;2022-10-19T01:16:46;1.75;;;0.57;;
17927;SDS011;9089;58.396;15.544;2022-10-19T01:19:21;0.93;;;0.50;;
17927;SDS011;9089;58.396;15.544;2022-10-19T01:21:52;0.60;;;0.50;;
17927;SDS011;9089;58.396;15.544;2022-10-19T01:27:07;0.50;;;0.50;;
17927;SDS011;9089;58.396;15.544;2022-10-19T01:29:47;0.60;;;0.60;;
17927;SDS011;9089;58.396;15.544;2022-10-19T01:32:13;0.93;;;0.45;;
17927;SDS011;9089;58.396;15.544;2022-10-19T01:34:43;0.50;;;0.50;;
17927;SDS011;9089;58.396;15.544;2022-10-19T01:37:11;0.77;;;0.77;;
17927;SDS011;9089;58.396;15.544;2022-10-19T01:39:42;1.90;;;0.50;;
17927;SDS011;9089;58.396;15.544;2022-10-19T01:42:10;1.00;;;0.60;;
17927;SDS011;9089;58.396;15.544;2022-10-19T01:44:38;0.70;;;0.70;;
17927;SDS011;9089;58.396;15.544;2022-10-19T01:47:07;1.20;;;0.80;;
17927;SDS011;9089;58.396;15.544;2022-10-19T01:49:37;0.60;;;0.60;;
17927;SDS011;9089;58.396;15.544;2022-10-19T01:52:06;0.55;;;0.55;;
17927;SDS011;9089;58.396;15.544;2022-10-19T01:54:33;0.70;;;0.70;;
17927;SDS011;9089;58.396;15.544;2022-10-19T01:57:00;1.42;;;0.60;;
17927;SDS011;9089;58.396;15.544;2022-10-19T01:59:26;0.50;;;0.50;;
17927;SDS011;9089;58.396;15.544;2022-10-19T02:01:52;0.50;;;0.50;;
17927;SDS011;9089;58.396;15.544;2022-10-19T02:04:20;0.60;;;0.60;;
17927;SDS011;9089;58.396;15.544;2022-10-19T02:06:46;0.50;;;0.50;;
17927;SDS011;9089;58.396;15.544;2022-10-19T02:09:11;0.95;;;0.60;;
17927;SDS011;9089;58.396;15.544;2022-10-19T02:11:42;1.65;;;0.70;;
17927;SDS011;9089;58.396;15.544;2022-10-19T02:14:10;1.58;;;0.70;;
17927;SDS011;9089;58.396;15.544;2022-10-19T02:16:38;3.03;;;0.75;;
17927;SDS011;9089;58.396;15.544;2022-10-19T02:19:04;0.60;;;0.60;;
17927;SDS011;9089;58.396;15.544;2022-10-19T02:21:34;2.55;;;0.60;;
17927;SDS011;9089;58.396;15.544;2022-10-19T02:23:59;0.60;;;0.60;;
17927;SDS011;9089;58.396;15.544;2022-10-19T02:26:25;0.77;;;0.60;;
17927;SDS011;9089;58.396;15.544;2022-10-19T02:28:50;1.05;;;0.60;;
17927;SDS011;9089;58.396;15.544;2022-10-19T02:31:17;1.02;;;0.60;;
17927;SDS011;9089;58.396;15.544;2022-10-19T02:33:43;0.82;;;0.50;;
17927;SDS011;9089;58.396;15.544;2022-10-19T02:36:08;1.75;;;0.70;;
17927;SDS011;9089;58.396;15.544;2022-10-19T02:38:35;0.52;;;0.52;;
17927;SDS011;9089;58.396;15.544;2022-10-19T02:41:03;1.40;;;0.50;;
17927;SDS011;9089;58.396;15.544;2022-10-19T02:43:30;1.13;;;0.52;;
17927;SDS011;9089;58.396;15.544;2022-10-19T02:45:58;2.05;;;0.60;;
17927;SDS011;9089;58.396;15.544;2022-10-19T02:48:25;1.75;;;0.52;;
17927;SDS011;9089;58.396;15.544;2022-10-19T02:50:53;0.90;;;0.73;;
17927;SDS011;9089;58.396;15.544;2022-10-19T02:53:18;1.40;;;0.50;;
17927;SDS011;9089;58.396;15.544;2022-10-19T02:55:45;0.57;;;0.57;;
17927;SDS011;9089;58.396;15.544;2022-10-19T02:58:11;0.50;;;0.50;;
17927;SDS011;9089;58.396;15.544;2022-10-19T03:00:37;1.27;;;0.63;;
17927;SDS011;9089;58.396;15.544;2022-10-19T03:03:02;1.40;;;0.50;;
17927;SDS011;9089;58.396;15.544;2022-10-19T03:05:28;0.63;;;0.63;;
17927;SDS011;9089;58.396;15.544;2022-10-19T03:07:53;1.27;;;0.50;;
17927;SDS011;9089;58.396;15.544;2022-10-19T03:10:19;0.73;;;0.60;;
17927;SDS011;9089;58.396;15.544;2022-10-19T03:12:46;0.50;;;0.40;;
17927;SDS011;9089;58.396;15.544;2022-10-19T03:15:13;0.82;;;0.60;;
17927;SDS011;9089;58.396;15.544;2022-10-19T03:17:39;2.63;;;0.60;;
17927;SDS011;9089;58.396;15.544;2022-10-19T03:20:05;0.55;;;0.50;;
17927;SDS011;9089;58.396;15.544;2022-10-19T03:22:30;0.68;;;0.50;;
17927;SDS011;9089;58.396;15.544;2022-10-19T03:24:55;0.50;;;0.50;;
17927;SDS011;9089;58.396;15.544;2022-10-19T03:27:21;1.05;;;0.70;;
17927;SDS011;9089;58.396;15.544;2022-10-19T03:29:48;0.55;;;0.55;;
17927;SDS011;9089;58.396;15.544;2022-10-19T03:32:13;0.65;;;0.52;;
17927;SDS011;9089;58.396;15.544;2022-10-19T03:34:39;0.70;;;0.70;;
17927;SDS011;9089;58.396;15.544;2022-10-19T03:37:04;0.43;;;0.43;;
17927;SDS011;9089;58.396;15.544;2022-10-19T03:39:30;1.30;;;0.60;;
17927;SDS011;9089;58.396;15.544;2022-10-19T03:41:55;0.55;;;0.55;;
17927;SDS011;9089;58.396;15.544;2022-10-19T03:44:21;1.05;;;0.60;;
17927;SDS011;9089;58.396;15.544;2022-10-19T03:46:47;0.60;;;0.55;;
17927;SDS011;9089;58.396;15.544;2022-10-19T03:49:13;0.50;;;0.50;;
17927;SDS011;9089;58.396;15.544;2022-10-19T03:51:38;2.97;;;0.75;;
17927;SDS011;9089;58.396;15.544;2022-10-19T03:54:05;0.77;;;0.65;;
17927;SDS011;9089;58.396;15.544;2022-10-19T03:56:32;0.50;;;0.50;;
17927;SDS011;9089;58.396;15.544;2022-10-19T03:58:58;0.70;;;0.70;;
17927;SDS011;9089;58.396;15.544;2022-10-19T04:01:24;0.65;;;0.65;;
17927;SDS011;9089;58.396;15.544;2022-10-19T04:03:53;0.60;;;0.60;;
17927;SDS011;9089;58.396;15.544;2022-10-19T04:06:18;0.95;;;0.60;;
17927;SDS011;9089;58.396;15.544;2022-10-19T04:08:46;1.10;;;0.75;;
17927;SDS011;9089;58.396;15.544;2022-10-19T04:11:12;0.52;;;0.52;;
17927;SDS011;9089;58.396;15.544;2022-10-19T04:13:38;1.85;;;0.60;;
17927;SDS011;9089;58.396;15.544;2022-10-19T04:16:04;0.57;;;0.57;;
17927;SDS011;9089;58.396;15.544;2022-10-19T04:18:30;1.10;;;0.60;;
17927;SDS011;9089;58.396;15.544;2022-10-19T04:20:56;0.93;;;0.80;;
17927;SDS011;9089;58.396;15.544;2022-10-19T04:23:22;1.20;;;0.70;;
17927;SDS011;9089;58.396;15.544;2022-10-19T04:25:47;3.03;;;0.60;;
17927;SDS011;9089;58.396;15.544;2022-10-19T04:28:13;0.70;;;0.70;;
17927;SDS011;9089;58.396;15.544;2022-10-19T04:30:38;1.42;;;0.60;;
17927;SDS011;9089;58.396;15.544;2022-10-19T04:33:04;0.60;;;0.60;;
17927;SDS011;9089;58.396;15.544;2022-10-19T04:35:29;2.10;;;0.70;;
17927;SDS011;9089;58.396;15.544;2022-10-19T04:37:56;3.13;;;0.85;;
17927;SDS011;9089;58.396;15.544;2022-10-19T04:40:22;0.77;;;0.68;;
17927;SDS011;9089;58.396;15.544;2022-10-19T04:42:48;1.25;;;0.45;;
17927;SDS011;9089;58.396;15.544;2022-10-19T04:45:13;1.02;;;0.88;;
17927;SDS011;9089;58.396;15.544;2022-10-19T04:47:38;0.73;;;0.70;;
17927;SDS011;9089;58.396;15.544;2022-10-19T04:50:04;0.50;;;0.50;;
17927;SDS011;9089;58.396;15.544;2022-10-19T04:52:29;0.50;;;0.50;;
17927;SDS011;9089;58.396;15.544;2022-10-19T04:54:56;0.50;;;0.50;;
17927;SDS011;9089;58.396;15.544;2022-10-19T04:57:22;1.02;;;0.60;;
17927;SDS011;9089;58.396;15.544;2022-10-19T04:59:47;1.48;;;0.60;;
17927;SDS011;9089;58.396;15.544;2022-10-19T05:02:13;2.30;;;0.70;;
17927;SDS011;9089;58.396;15.544;2022-10-19T05:04:38;0.85;;;0.75;;
17927;SDS011;9089;58.396;15.544;2022-10-19T05:07:04;0.70;;;0.70;;
17927;SDS011;9089;58.396;15.544;2022-10-19T05:09:29;1.30;;;0.60;;
17927;SDS011;9089;58.396;15.544;2022-10-19T05:11:56;0.73;;;0.50;;
17927;SDS011;9089;58.396;15.544;2022-10-19T05:14:21;0.60;;;0.55;;
17927;SDS011;9089;58.396;15.544;2022-10-19T05:16:47;2.45;;;0.70;;
17927;SDS011;9089;58.396;15.544;2022-10-19T05:19:13;0.60;;;0.60;;
17927;SDS011;9089;58.396;15.544;2022-10-19T05:21:38;0.50;;;0.50;;
17927;SDS011;9089;58.396;15.544;2022-10-19T05:24:04;2.95;;;0.73;;
17927;SDS011;9089;58.396;15.544;2022-10-19T05:26:29;0.65;;;0.60;;
17927;SDS011;9089;58.396;15.544;2022-10-19T05:28:57;0.98;;;0.60;;
17927;SDS011;9089;58.396;15.544;2022-10-19T05:31:26;1.15;;;0.68;;
17927;SDS011;9089;58.396;15.544;2022-10-19T05:33:51;0.60;;;0.60;;
17927;SDS011;9089;58.396;15.544;2022-10-19T05:36:18;0.70;;;0.70;;
17927;SDS011;9089;58.396;15.544;2022-10-19T05:38:43;0.95;;;0.80;;
17927;SDS011;9089;58.396;15.544;2022-10-19T05:41:09;0.70;;;0.65;;
17927;SDS011;9089;58.396;15.544;2022-10-19T05:43:35;1.58;;;0.80;;
17927;SDS011;9089;58.396;15.544;2022-10-19T05:46:05;0.55;;;0.55;;
17927;SDS011;9089;58.396;15.544;2022-10-19T05:48:31;0.60;;;0.60;;
17927;SDS011;9089;58.396;15.544;2022-10-19T05:50:59;0.60;;;0.60;;
17927;SDS011;9089;58.396;15.544;2022-10-19T05:53:25;0.70;;;0.60;;
17927;SDS011;9089;58.396;15.544;2022-10-19T05:55:51;1.00;;;0.77;;
17927;SDS011;9089;58.396;15.544;2022-10-19T05:58:16;0.82;;;0.70;;
17927;SDS011;9089;58.396;15.544;2022-10-19T06:00:42;3.58;;;0.80;;
17927;SDS011;9089;58.396;15.544;2022-10-19T06:03:09;1.05;;;0.68;;
17927;SDS011;9089;58.396;15.544;2022-10-19T06:05:34;0.80;;;0.70;;
17927;SDS011;9089;58.396;15.544;2022-10-19T06:08:00;0.70;;;0.70;;
17927;SDS011;9089;58.396;15.544;2022-10-19T06:10:25;3.72;;;0.70;;
17927;SDS011;9089;58.396;15.544;2022-10-19T06:12:51;0.60;;;0.60;;
17927;SDS011;9089;58.396;15.544;2022-10-19T06:15:16;1.90;;;0.88;;
17927;SDS011;9089;58.396;15.544;2022-10-19T06:17:42;0.77;;;0.70;;
17927;SDS011;9089;58.396;15.544;2022-10-19T06:20:09;1.30;;;0.73;;
17927;SDS011;9089;58.396;15.544;2022-10-19T06:22:34;4.78;;;0.70;;
17927;SDS011;9089;58.396;15.544;2022-10-19T06:25:00;0.57;;;0.50;;
17927;SDS011;9089;58.396;15.544;2022-10-19T06:27:25;3.85;;;0.80;;
17927;SDS011;9089;58.396;15.544;2022-10-19T06:29:51;0.95;;;0.70;;
17927;SDS011;9089;58.396;15.544;2022-10-19T06:32:16;1.05;;;0.60;;
17927;SDS011;9089;58.396;15.544;2022-10-19T06:34:41;1.77;;;0.68;;
17927;SDS011;9089;58.396;15.544;2022-10-19T06:37:08;1.85;;;0.70;;
17927;SDS011;9089;58.396;15.544;2022-10-19T06:39:34;2.28;;;0.60;;
17927;SDS011;9089;58.396;15.544;2022-10-19T06:41:59;2.75;;;0.60;;
17927;SDS011;9089;58.396;15.544;2022-10-19T06:44:24;1.08;;;0.73;;
17927;SDS011;9089;58.396;15.544;2022-10-19T06:46:51;0.70;;;0.70;;
17927;SDS011;9089;58.396;15.544;2022-10-19T06:49:16;0.60;;;0.60;;
17927;SDS011;9089;58.396;15.544;2022-10-19T06:51:41;2.83;;;0.85;;
17927;SDS011;9089;58.396;15.544;2022-10-19T06:54:08;1.63;;;0.57;;
17927;SDS011;9089;58.396;15.544;2022-10-19T06:56:34;1.38;;;0.70;;
17927;SDS011;9089;58.396;15.544;2022-10-19T06:58:59;0.75;;;0.60;;
17927;SDS011;9089;58.396;15.544;2022-10-19T07:01:24;0.50;;;0.50;;
17927;SDS011;9089;58.396;15.544;2022-10-19T07:03:50;0.70;;;0.70;;
17927;SDS011;9089;58.396;15.544;2022-10-19T07:06:15;1.70;;;0.80;;
17927;SDS011;9089;58.396;15.544;2022-10-19T07:08:41;0.60;;;0.60;;
17927;SDS011;9089;58.396;15.544;2022-10-19T07:11:08;1.50;;;0.80;;
17927;SDS011;9089;58.396;15.544;2022-10-19T07:13:34;0.70;;;0.70;;
17927;SDS011;9089;58.396;15.544;2022-10-19T07:16:03;0.82;;;0.73;;
17927;SDS011;9089;58.396;15.544;2022-10-19T07:18:30;0.82;;;0.52;;
17927;SDS011;9089;58.396;15.544;2022-10-19T07:20:56;0.90;;;0.70;;
17927;SDS011;9089;58.396;15.544;2022-10-19T07:23:22;1.25;;;1.15;;
17927;SDS011;9089;58.396;15.544;2022-10-19T07:25:47;0.93;;;0.90;;
17927;SDS011;9089;58.396;15.544;2022-10-19T07:28:14;3.15;;;1.95;;
17927;SDS011;9089;58.396;15.544;2022-10-19T07:30:40;1.10;;;1.10;;
17927;SDS011;9089;58.396;15.544;2022-10-19T07:33:05;1.55;;;1.20;;
17927;SDS011;9089;58.396;15.544;2022-10-19T07:35:31;1.75;;;1.00;;
17927;SDS011;9089;58.396;15.544;2022-10-19T07:37:56;0.90;;;0.90;;
17927;SDS011;9089;58.396;15.544;2022-10-19T07:40:22;0.80;;;0.80;;
17927;SDS011;9089;58.396;15.544;2022-10-19T07:42:47;1.08;;;0.60;;
17927;SDS011;9089;58.396;15.544;2022-10-19T07:45:14;0.70;;;0.70;;
17927;SDS011;9089;58.396;15.544;2022-10-19T07:47:39;0.90;;;0.68;;
17927;SDS011;9089;58.396;15.544;2022-10-19T07:50:05;2.47;;;0.65;;
17927;SDS011;9089;58.396;15.544;2022-10-19T07:52:30;1.02;;;0.55;;
17927;SDS011;9089;58.396;15.544;2022-10-19T07:54:57;4.97;;;0.93;;
17927;SDS011;9089;58.396;15.544;2022-10-19T07:57:22;1.60;;;0.45;;
17927;SDS011;9089;58.396;15.544;2022-10-19T07:59:48;1.08;;;0.50;;
17927;SDS011;9089;58.396;15.544;2022-10-19T08:02:15;0.60;;;0.60;;
17927;SDS011;9089;58.396;15.544;2022-10-19T08:04:41;0.40;;;0.40;;
17927;SDS011;9089;58.396;15.544;2022-10-19T08:07:06;2.33;;;0.57;;
17927;SDS011;9089;58.396;15.544;2022-10-19T08:09:32;1.17;;;0.77;;
17927;SDS011;9089;58.396;15.544;2022-10-19T08:11:57;1.65;;;0.50;;
17927;SDS011;9089;58.396;15.544;2022-10-19T08:14:22;0.60;;;0.60;;
17927;SDS011;9089;58.396;15.544;2022-10-19T08:16:48;0.65;;;0.50;;
17927;SDS011;9089;58.396;15.544;2022-10-19T08:19:15;0.50;;;0.50;;
17927;SDS011;9089;58.396;15.544;2022-10-19T08:21:41;1.08;;;0.68;;
17927;SDS011;9089;58.396;15.544;2022-10-19T08:24:07;3.25;;;0.57;;
17927;SDS011;9089;58.396;15.544;2022-10-19T08:26:33;3.17;;;1.10;;
17927;SDS011;9089;58.396;15.544;2022-10-19T08:28:58;0.93;;;0.60;;
17927;SDS011;9089;58.396;15.544;2022-10-19T08:31:24;1.63;;;0.90;;
17927;SDS011;9089;58.396;15.544;2022-10-19T08:33:49;0.60;;;0.60;;
17927;SDS011;9089;58.396;15.544;2022-10-19T08:36:16;0.40;;;0.40;;
17927;SDS011;9089;58.396;15.544;2022-10-19T08:38:44;0.50;;;0.50;;
17927;SDS011;9089;58.396;15.544;2022-10-19T08:43:58;0.40;;;0.35;;
17927;SDS011;9089;58.396;15.544;2022-10-19T08:46:27;1.83;;;0.50;;
17927;SDS011;9089;58.396;15.544;2022-10-19T08:48:58;0.50;;;0.50;;
17927;SDS011;9089;58.396;15.544;2022-10-19T08:51:25;0.85;;;0.60;;
17927;SDS011;9089;58.396;15.544;2022-10-19T08:53:53;0.88;;;0.40;;
17927;SDS011;9089;58.396;15.544;2022-10-19T08:56:22;0.30;;;0.30;;
17927;SDS011;9089;58.396;15.544;2022-10-19T08:58:52;0.35;;;0.35;;
17927;SDS011;9089;58.396;15.544;2022-10-19T09:01:23;0.73;;;0.68;;
17927;SDS011;9089;58.396;15.544;2022-10-19T09:03:53;0.65;;;0.50;;
17927;SDS011;9089;58.396;15.544;2022-10-19T09:06:21;0.60;;;0.50;;
17927;SDS011;9089;58.396;15.544;2022-10-19T09:08:50;1.85;;;0.30;;
17927;SDS011;9089;58.396;15.544;2022-10-19T09:11:18;0.85;;;0.40;;
17927;SDS011;9089;58.396;15.544;2022-10-19T09:13:45;0.47;;;0.32;;
17927;SDS011;9089;58.396;15.544;2022-10-19T09:16:11;1.77;;;0.50;;
17927;SDS011;9089;58.396;15.544;2022-10-19T09:18:37;0.40;;;0.40;;
17927;SDS011;9089;58.396;15.544;2022-10-19T09:21:04;0.52;;;0.32;;
17927;SDS011;9089;58.396;15.544;2022-10-19T09:23:35;0.40;;;0.30;;
17927;SDS011;9089;58.396;15.544;2022-10-19T09:26:03;0.30;;;0.30;;
17927;SDS011;9089;58.396;15.544;2022-10-19T09:28:33;0.70;;;0.40;;
17927;SDS011;9089;58.396;15.544;2022-10-19T09:31:01;0.43;;;0.40;;
17927;SDS011;9089;58.396;15.544;2022-10-19T09:33:29;0.50;;;0.40;;
17927;SDS011;9089;58.396;15.544;2022-10-19T09:35:56;0.40;;;0.30;;
17927;SDS011;9089;58.396;15.544;2022-10-19T09:38:24;1.75;;;0.40;;
17927;SDS011;9089;58.396;15.544;2022-10-19T09:40:51;0.40;;;0.40;;
17927;SDS011;9089;58.396;15.544;2022-10-19T09:43:18;1.55;;;0.40;;
17927;SDS011;9089;58.396;15.544;2022-10-19T09:45:46;0.40;;;0.30;;
17927;SDS011;9089;58.396;15.544;2022-10-19T09:48:16;2.13;;;0.43;;
17927;SDS011;9089;58.396;15.544;2022-10-19T09:50:42;0.40;;;0.40;;
17927;SDS011;9089;58.396;15.544;2022-10-19T09:53:14;1.17;;;0.40;;
17927;SDS011;9089;58.396;15.544;2022-10-19T09:55:41;0.93;;;0.50;;
17927;SDS011;9089;58.396;15.544;2022-10-19T09:58:15;0.65;;;0.45;;
17927;SDS011;9089;58.396;15.544;2022-10-19T10:00:43;0.85;;;0.35;;
17927;SDS011;9089;58.396;15.544;2022-10-19T10:03:20;0.93;;;0.30;;
17927;SDS011;9089;58.396;15.544;2022-10-19T10:05:47;2.67;;;0.40;;
17927;SDS011;9089;58.396;15.544;2022-10-19T10:08:13;1.25;;;0.45;;
17927;SDS011;9089;58.396;15.544;2022-10-19T10:10:41;0.57;;;0.35;;
17927;SDS011;9089;58.396;15.544;2022-10-19T10:13:08;1.45;;;0.45;;
17927;SDS011;9089;58.396;15.544;2022-10-19T10:15:40;0.30;;;0.30;;
17927;SDS011;9089;58.396;15.544;2022-10-19T10:18:10;0.50;;;0.47;;
17927;SDS011;9089;58.396;15.544;2022-10-19T10:20:37;0.40;;;0.30;;
17927;SDS011;9089;58.396;15.544;2022-10-19T10:23:04;0.38;;;0.38;;
17927;SDS011;9089;58.396;15.544;2022-10-19T10:25:32;1.27;;;0.55;;
17927;SDS011;9089;58.396;15.544;2022-10-19T10:27:59;0.50;;;0.32;;
17927;SDS011;9089;58.396;15.544;2022-10-19T10:30:25;0.55;;;0.40;;
17927;SDS011;9089;58.396;15.544;2022-10-19T10:32:52;0.40;;;0.40;;
17927;SDS011;9089;58.396;15.544;2022-10-19T10:35:20;1.08;;;0.32;;
17927;SDS011;9089;58.396;15.544;2022-10-19T10:37:47;0.85;;;0.70;;
17927;SDS011;9089;58.396;15.544;2022-10-19T10:40:16;0.50;;;0.30;;
17927;SDS011;9089;58.396;15.544;2022-10-19T10:42:43;0.43;;;0.30;;
17927;SDS011;9089;58.396;15.544;2022-10-19T10:45:14;0.25;;;0.25;;
17927;SDS011;9089;58.396;15.544;2022-10-19T10:47:41;0.30;;;0.30;;
17927;SDS011;9089;58.396;15.544;2022-10-19T10:50:14;0.30;;;0.30;;
17927;SDS011;9089;58.396;15.544;2022-10-19T10:52:41;1.30;;;0.32;;
17927;SDS011;9089;58.396;15.544;2022-10-19T10:55:20;0.75;;;0.50;;
17927;SDS011;9089;58.396;15.544;2022-10-19T10:57:46;1.02;;;0.40;;
17927;SDS011;9089;58.396;15.544;2022-10-19T11:00:14;0.47;;;0.47;;
17927;SDS011;9089;58.396;15.544;2022-10-19T11:02:42;0.85;;;0.40;;
17927;SDS011;9089;58.396;15.544;2022-10-19T11:05:14;0.60;;;0.47;;
17927;SDS011;9089;58.396;15.544;2022-10-19T11:07:43;0.57;;;0.45;;
17927;SDS011;9089;58.396;15.544;2022-10-19T11:10:15;2.10;;;0.43;;
17927;SDS011;9089;58.396;15.544;2022-10-19T11:12:43;1.30;;;0.30;;
17927;SDS011;9089;58.396;15.544;2022-10-19T11:15:11;1.05;;;0.50;;
17927;SDS011;9089;58.396;15.544;2022-10-19T11:17:38;1.73;;;0.52;;
17927;SDS011;9089;58.396;15.544;2022-10-19T11:20:05;0.93;;;0.40;;
17927;SDS011;9089;58.396;15.544;2022-10-19T11:22:32;0.98;;;0.40;;
17927;SDS011;9089;58.396;15.544;2022-10-19T11:25:03;0.40;;;0.30;;
17927;SDS011;9089;58.396;15.544;2022-10-19T11:27:39;0.85;;;0.30;;
17927;SDS011;9089;58.396;15.544;2022-10-19T11:30:08;0.50;;;0.47;;
17927;SDS011;9089;58.396;15.544;2022-10-19T11:32:38;0.40;;;0.30;;
17927;SDS011;9089;58.396;15.544;2022-10-19T11:35:13;0.57;;;0.50;;
17927;SDS011;9089;58.396;15.544;2022-10-19T11:37:43;0.50;;;0.40;;
17927;SDS011;9089;58.396;15.544;2022-10-19T11:40:13;0.50;;;0.40;;
17927;SDS011;9089;58.396;15.544;2022-10-19T11:42:43;0.30;;;0.30;;
17927;SDS011;9089;58.396;15.544;2022-10-19T11:45:13;0.50;;;0.40;;
17927;SDS011;9089;58.396;15.544;2022-10-19T11:47:46;0.35;;;0.30;;
17927;SDS011;9089;58.396;15.544;2022-10-19T11:50:21;0.40;;;0.40;;
17927;SDS011;9089;58.396;15.544;2022-10-19T11:52:49;0.30;;;0.30;;
17927;SDS011;9089;58.396;15.544;2022-10-19T11:55:20;0.30;;;0.30;;
17927;SDS011;9089;58.396;15.544;2022-10-19T11:57:52;0.63;;;0.32;;
17927;SDS011;9089;58.396;15.544;2022-10-19T12:00:19;0.98;;;0.50;;
17927;SDS011;9089;58.396;15.544;2022-10-19T12:02:50;0.30;;;0.30;;
17927;SDS011;9089;58.396;15.544;2022-10-19T12:05:18;0.52;;;0.40;;
17927;SDS011;9089;58.396;15.544;2022-10-19T12:07:49;0.60;;;0.40;;
17927;SDS011;9089;58.396;15.544;2022-10-19T12:10:22;0.45;;;0.30;;
17927;SDS011;9089;58.396;15.544;2022-10-19T12:12:49;1.75;;;0.68;;
17927;SDS011;9089;58.396;15.544;2022-10-19T12:15:18;3.25;;;0.40;;
17927;SDS011;9089;58.396;15.544;2022-10-19T12:17:45;0.30;;;0.30;;
17927;SDS011;9089;58.396;15.544;2022-10-19T12:20:14;0.50;;;0.40;;
17927;SDS011;9089;58.396;15.544;2022-10-19T12:22:40;1.55;;;0.40;;
17927;SDS011;9089;58.396;15.544;2022-10-19T12:25:10;0.32;;;0.30;;
17927;SDS011;9089;58.396;15.544;2022-10-19T12:27:38;0.55;;;0.35;;
17927;SDS011;9089;58.396;15.544;2022-10-19T12:30:05;3.80;;;0.40;;
17927;SDS011;9089;58.396;15.544;2022-10-19T12:32:46;0.38;;;0.38;;
17927;SDS011;9089;58.396;15.544;2022-10-19T12:35:19;1.13;;;0.43;;
17927;SDS011;9089;58.396;15.544;2022-10-19T12:37:46;2.05;;;0.50;;
17927;SDS011;9089;58.396;15.544;2022-10-19T12:40:17;1.35;;;0.30;;
17927;SDS011;9089;58.396;15.544;2022-10-19T12:42:45;1.30;;;0.40;;
17927;SDS011;9089;58.396;15.544;2022-10-19T12:45:17;0.30;;;0.30;;
17927;SDS011;9089;58.396;15.544;2022-10-19T12:50:56;0.50;;;0.50;;
17927;SDS011;9089;58.396;15.544;2022-10-19T12:53:22;0.30;;;0.30;;
17927;SDS011;9089;58.396;15.544;2022-10-19T12:55:56;0.50;;;0.30;;
17927;SDS011;9089;58.396;15.544;2022-10-19T12:58:23;2.35;;;0.40;;
17927;SDS011;9089;58.396;15.544;2022-10-19T13:00:56;0.68;;;0.30;;
17927;SDS011;9089;58.396;15.544;2022-10-19T13:03:29;0.40;;;0.40;;
17927;SDS011;9089;58.396;15.544;2022-10-19T13:05:55;0.88;;;0.40;;
17927;SDS011;9089;58.396;15.544;2022-10-19T13:08:23;0.60;;;0.32;;
17927;SDS011;9089;58.396;15.544;2022-10-19T13:11:02;0.50;;;0.30;;
17927;SDS011;9089;58.396;15.544;2022-10-19T13:13:49;0.50;;;0.40;;
17927;SDS011;9089;58.396;15.544;2022-10-19T13:19:01;0.75;;;0.40;;
17927;SDS011;9089;58.396;15.544;2022-10-19T13:21:46;1.50;;;0.38;;
17927;SDS011;9089;58.396;15.544;2022-10-19T13:24:19;0.90;;;0.47;;
17927;SDS011;9089;58.396;15.544;2022-10-19T13:26:44;0.40;;;0.40;;
17927;SDS011;9089;58.396;15.544;2022-10-19T13:29:24;1.08;;;0.50;;
17927;SDS011;9089;58.396;15.544;2022-10-19T13:31:49;1.40;;;0.40;;
17927;SDS011;9089;58.396;15.544;2022-10-19T13:34:15;0.47;;;0.40;;
17927;SDS011;9089;58.396;15.544;2022-10-19T13:36:49;0.70;;;0.30;;
17927;SDS011;9089;58.396;15.544;2022-10-19T13:39:22;1.77;;;0.45;;
17927;SDS011;9089;58.396;15.544;2022-10-19T13:41:51;0.47;;;0.40;;
17927;SDS011;9089;58.396;15.544;2022-10-19T13:44:18;4.10;;;0.50;;
17927;SDS011;9089;58.396;15.544;2022-10-19T13:46:51;0.82;;;0.40;;
17927;SDS011;9089;58.396;15.544;2022-10-19T13:49:30;0.30;;;0.30;;
17927;SDS011;9089;58.396;15.544;2022-10-19T13:52:10;1.13;;;0.40;;
17927;SDS011;9089;58.396;15.544;2022-10-19T13:54:48;0.38;;;0.30;;
17927;SDS011;9089;58.396;15.544;2022-10-19T13:57:17;0.77;;;0.45;;
17927;SDS011;9089;58.396;15.544;2022-10-19T13:59:57;0.47;;;0.30;;
17927;SDS011;9089;58.396;15.544;2022-10-19T14:05:10;0.43;;;0.40;;
17927;SDS011;9089;58.396;15.544;2022-10-19T14:07:42;0.50;;;0.50;;
17927;SDS011;9089;58.396;15.544;2022-10-19T14:10:11;1.15;;;0.30;;
17927;SDS011;9089;58.396;15.544;2022-10-19T14:12:40;0.40;;;0.40;;
17927;SDS011;9089;58.396;15.544;2022-10-19T14:15:20;1.25;;;0.40;;
17927;SDS011;9089;58.396;15.544;2022-10-19T14:17:45;0.50;;;0.47;;
17927;SDS011;9089;58.396;15.544;2022-10-19T14:20:23;0.32;;;0.30;;
17927;SDS011;9089;58.396;15.544;2022-10-19T14:22:48;0.68;;;0.38;;
17927;SDS011;9089;58.396;15.544;2022-10-19T14:25:15;1.48;;;0.40;;
17927;SDS011;9089;58.396;15.544;2022-10-19T14:27:41;0.57;;;0.52;;
17927;SDS011;9089;58.396;15.544;2022-10-19T14:30:15;0.70;;;0.47;;
17927;SDS011;9089;58.396;15.544;2022-10-19T14:32:44;2.38;;;0.50;;
17927;SDS011;9089;58.396;15.544;2022-10-19T14:35:15;0.55;;;0.38;;
17927;SDS011;9089;58.396;15.544;2022-10-19T14:37:42;0.60;;;0.55;;
17927;SDS011;9089;58.396;15.544;2022-10-19T14:40:20;0.95;;;0.50;;
17927;SDS011;9089;58.396;15.544;2022-10-19T14:42:46;0.95;;;0.40;;
17927;SDS011;9089;58.396;15.544;2022-10-19T14:45:13;1.85;;;0.40;;
17927;SDS011;9089;58.396;15.544;2022-10-19T14:47:49;0.57;;;0.38;;
17927;SDS011;9089;58.396;15.544;2022-10-19T14:50:15;3.55;;;0.50;;
17927;SDS011;9089;58.396;15.544;2022-10-19T14:52:42;0.40;;;0.40;;
17927;SDS011;9089;58.396;15.544;2022-10-19T14:55:08;0.60;;;0.40;;
17927;SDS011;9089;58.396;15.544;2022-10-19T14:57:36;0.40;;;0.40;;
17927;SDS011;9089;58.396;15.544;2022-10-19T15:00:05;0.70;;;0.40;;
17927;SDS011;9089;58.396;15.544;2022-10-19T15:02:35;0.47;;;0.40;;
17927;SDS011;9089;58.396;15.544;2022-10-19T15:05:01;1.13;;;0.40;;
17927;SDS011;9089;58.396;15.544;2022-10-19T15:07:29;1.85;;;0.40;;